Terminal Aerodrome Forecast
Issued by NWS Twin Cities, MN

Home | Current Version | Previous Version | Graphics & Text | Print | Product List | Glossary On
Versions: 1 2 3 4 5 6 7 8 9 10 11 12 13 14 15 16 17 18 19 20
476
FTUS43 KMPX 140520
TAFSTC
TAF
KSTC 140520Z 1406/1506 06003KT P6SM FEW150
     FM141500 08005KT P6SM SCT100 BKN200
     FM141700 06007KT P6SM VCSH BKN050 OVC090
     FM142000 02010G16KT P6SM -SHRA SCT020 OVC035
     FM150300 34012G18KT P6SM OVC050=

USA.gov is the U.S. government's official web portal to all federal, state and local government web resources and services.